Time;durP1;ratioP1;P1;durP2;ratioP2;P2;SDS_P1;SDS_P2;PMS_P1;PMS_P2;Temp;Humidity;BMP_temperature;BMP_pressure;BME280_temperature;BME280_humidity;BME280_pressure;Samples;Min_cycle;Max_cycle;Signal;HPM_P1;HPM_P2
2021/07/09 00:02:23;;;;;;;20.80;10.67;;;17.90;99.90;;;;;;5113472;28;20268;-80
2021/07/09 00:04:50;;;;;;;16.10;10.07;;;17.80;99.90;;;;;;5113611;28;20281;-79
2021/07/09 00:07:17;;;;;;;16.47;10.43;;;17.70;99.90;;;;;;5113618;28;20712;-81
2021/07/09 00:09:47;;;;;;;16.47;10.57;;;17.70;99.90;;;;;;5114013;28;20289;-80
2021/07/09 00:12:14;;;;;;;17.70;9.87;;;17.70;99.90;;;;;;5114252;28;20246;-80
2021/07/09 00:14:42;;;;;;;18.97;10.80;;;17.70;99.90;;;;;;5113942;28;20190;-80
2021/07/09 00:17:09;;;;;;;19.57;11.00;;;17.70;99.90;;;;;;5113708;28;20309;-79
2021/07/09 00:19:37;;;;;;;22.77;10.67;;;17.80;99.90;;;;;;5114349;28;20290;-80
2021/07/09 00:22:04;;;;;;;15.80;10.77;;;17.80;99.90;;;;;;5113237;28;20217;-80
2021/07/09 00:24:32;;;;;;;17.60;9.97;;;17.80;99.90;;;;;;5113900;28;20194;-80
2021/07/09 00:27:00;;;;;;;14.40;9.07;;;17.80;99.90;;;;;;5113512;28;20190;-80
2021/07/09 00:29:27;;;;;;;14.00;9.40;;;17.90;99.90;;;;;;5113684;28;20194;-80
2021/07/09 00:31:56;;;;;;;19.07;10.60;;;17.90;99.90;;;;;;5114540;28;20263;-80
2021/07/09 00:34:23;;;;;;;17.77;10.47;;;17.90;99.90;;;;;;5117030;28;20289;-80
2021/07/09 00:36:50;;;;;;;19.03;10.93;;;17.90;99.90;;;;;;5116792;28;20200;-81
2021/07/09 00:39:17;;;;;;;13.97;9.97;;;17.90;99.90;;;;;;5116619;28;20198;-81
2021/07/09 00:41:43;;;;;;;20.53;10.47;;;17.90;99.90;;;;;;5116562;28;20748;-81
2021/07/09 00:44:11;;;;;;;15.70;10.80;;;17.80;99.90;;;;;;5116701;28;20285;-80
2021/07/09 00:46:40;;;;;;;17.30;10.83;;;17.90;99.90;;;;;;5116285;28;20289;-80
2021/07/09 00:49:09;;;;;;;18.40;11.83;;;17.90;99.90;;;;;;5116250;28;20437;-80
2021/07/09 00:51:37;;;;;;;18.60;11.67;;;17.90;99.90;;;;;;5116307;28;20285;-80
2021/07/09 00:54:05;;;;;;;18.07;10.97;;;18.00;99.90;;;;;;5116199;28;20198;-80
2021/07/09 00:56:33;;;;;;;20.53;12.70;;;17.90;99.90;;;;;;5116229;28;20752;-80
2021/07/09 00:59:03;;;;;;;19.43;11.67;;;17.90;99.90;;;;;;5116057;28;20261;-81
2021/07/09 01:01:31;;;;;;;20.07;13.17;;;17.80;99.90;;;;;;5116371;28;20556;-81
2021/07/09 01:03:58;;;;;;;18.33;11.97;;;17.80;99.90;;;;;;5116009;28;20228;-81
2021/07/09 01:06:26;;;;;;;23.23;12.77;;;17.70;99.90;;;;;;5116147;28;20285;-81
2021/07/09 01:08:53;;;;;;;22.83;12.80;;;17.70;99.90;;;;;;5116120;28;20201;-81
2021/07/09 01:11:21;;;;;;;19.77;13.47;;;17.70;99.90;;;;;;5115523;28;20642;-81
2021/07/09 01:13:48;;;;;;;20.57;13.50;;;17.60;99.90;;;;;;5116015;28;20197;-80
2021/07/09 01:16:15;;;;;;;23.30;14.80;;;17.70;99.90;;;;;;5115794;28;20304;-80
2021/07/09 01:18:42;;;;;;;26.43;14.37;;;17.60;99.90;;;;;;5115774;28;20232;-81
2021/07/09 01:21:10;;;;;;;25.53;14.70;;;17.60;99.90;;;;;;5116009;28;20221;-80
2021/07/09 01:23:41;;;;;;;26.93;14.57;;;17.60;99.90;;;;;;5115623;28;20205;-80
2021/07/09 01:26:10;;;;;;;31.13;15.17;;;17.50;99.90;;;;;;5115630;28;20197;-80
2021/07/09 01:28:38;;;;;;;27.53;15.50;;;17.50;99.90;;;;;;5115792;28;20284;-80
2021/07/09 01:31:07;;;;;;;28.00;15.80;;;17.50;99.90;;;;;;5116030;28;20198;-80
2021/07/09 01:33:35;;;;;;;27.33;16.30;;;17.50;99.90;;;;;;5115643;28;20575;-80
2021/07/09 01:36:02;;;;;;;25.73;14.13;;;17.50;99.90;;;;;;5115336;28;20281;-80
2021/07/09 01:38:28;;;;;;;27.13;14.83;;;17.50;99.90;;;;;;5115078;28;20244;-80
2021/07/09 01:40:55;;;;;;;26.27;15.13;;;17.50;99.90;;;;;;5115231;28;20290;-80
2021/07/09 01:43:25;;;;;;;29.27;15.57;;;17.50;99.90;;;;;;5115300;28;20222;-80
2021/07/09 01:45:52;;;;;;;27.87;16.23;;;17.50;99.90;;;;;;5115135;28;20554;-80
2021/07/09 01:48:19;;;;;;;30.40;15.23;;;17.40;99.90;;;;;;5115723;28;20198;-80
2021/07/09 01:50:46;;;;;;;30.23;16.50;;;17.30;99.90;;;;;;5115297;28;20194;-80
2021/07/09 01:53:13;;;;;;;30.63;16.60;;;17.20;99.90;;;;;;5115160;28;20582;-80
2021/07/09 01:55:40;;;;;;;35.87;17.23;;;17.20;99.90;;;;;;5115113;28;20229;-80
2021/07/09 01:58:07;;;;;;;34.60;17.43;;;17.10;99.90;;;;;;5114867;28;20226;-80
2021/07/09 02:00:36;;;;;;;30.30;16.50;;;17.00;99.90;;;;;;5115923;28;20301;-80
2021/07/09 02:03:03;;;;;;;37.03;17.73;;;16.90;99.90;;;;;;5114891;28;20280;-80
2021/07/09 02:05:31;;;;;;;28.90;16.73;;;16.80;99.90;;;;;;5114857;28;20197;-80
2021/07/09 02:07:58;;;;;;;34.97;18.27;;;16.80;99.90;;;;;;5114535;28;20281;-80
2021/07/09 02:10:27;;;;;;;43.63;19.63;;;16.70;99.90;;;;;;5114590;28;20194;-80
2021/07/09 02:12:55;;;;;;;39.17;19.87;;;16.60;99.90;;;;;;5114654;28;20223;-80
2021/07/09 02:15:25;;;;;;;43.00;21.37;;;16.50;99.90;;;;;;5114154;28;20198;-80
2021/07/09 02:17:54;;;;;;;39.63;21.37;;;16.40;99.90;;;;;;5114361;28;20254;-80
2021/07/09 02:20:23;;;;;;;41.47;23.07;;;16.50;99.90;;;;;;5114510;28;20289;-80
2021/07/09 02:22:51;;;;;;;44.03;21.93;;;16.50;99.90;;;;;;5114321;28;20232;-79
2021/07/09 02:25:18;;;;;;;37.27;22.33;;;16.60;99.90;;;;;;5114459;28;20538;-80
2021/07/09 02:27:48;;;;;;;37.37;21.83;;;16.60;99.90;;;;;;5114248;28;20660;-80
2021/07/09 02:30:17;;;;;;;32.20;20.87;;;16.50;99.90;;;;;;5114336;28;20202;-80
2021/07/09 02:32:45;;;;;;;33.83;20.13;;;16.50;99.90;;;;;;5114623;28;20213;-80
2021/07/09 02:35:16;;;;;;;26.87;16.70;;;16.50;99.90;;;;;;5114124;28;20204;-80
2021/07/09 02:37:44;;;;;;;26.53;16.90;;;16.40;99.90;;;;;;5114090;28;20622;-80
2021/07/09 02:40:13;;;;;;;27.93;17.23;;;16.40;99.90;;;;;;5114068;28;20200;-79
2021/07/09 02:42:41;;;;;;;30.80;18.33;;;16.40;99.90;;;;;;5113775;28;20285;-81
2021/07/09 02:45:09;;;;;;;33.00;18.83;;;16.40;99.90;;;;;;5113984;28;20232;-80
2021/07/09 02:47:37;;;;;;;30.67;17.57;;;16.50;99.90;;;;;;5113550;28;20226;-80
2021/07/09 02:50:06;;;;;;;33.53;19.27;;;16.50;99.90;;;;;;5113667;28;20645;-79
2021/07/09 02:52:35;;;;;;;34.00;18.97;;;16.60;99.90;;;;;;5113555;28;20285;-79
2021/07/09 02:55:03;;;;;;;34.40;18.60;;;16.70;99.90;;;;;;5113240;28;20201;-79
2021/07/09 02:57:30;;;;;;;30.37;17.70;;;16.70;99.90;;;;;;5113717;28;20624;-79
2021/07/09 02:59:59;;;;;;;27.00;16.67;;;16.70;99.90;;;;;;5113604;28;20317;-80
2021/07/09 03:02:27;;;;;;;26.77;15.93;;;16.70;99.90;;;;;;5113594;28;20232;-79
2021/07/09 03:04:53;;;;;;;23.73;15.93;;;16.70;99.90;;;;;;5114012;28;20607;-79
2021/07/09 03:07:20;;;;;;;23.03;15.30;;;16.80;99.90;;;;;;5113523;28;20238;-79
2021/07/09 03:09:48;;;;;;;24.00;14.77;;;16.90;99.90;;;;;;5113720;28;20292;-79
2021/07/09 03:12:15;;;;;;;20.83;14.50;;;16.80;99.90;;;;;;5113359;28;20204;-80
2021/07/09 03:14:42;;;;;;;23.93;15.53;;;16.90;99.90;;;;;;5113236;28;20194;-79
2021/07/09 03:17:09;;;;;;;25.47;14.70;;;17.00;99.90;;;;;;5113644;28;20199;-79
2021/07/09 03:19:36;;;;;;;22.37;14.60;;;17.00;99.90;;;;;;5113095;28;20250;-79
2021/07/09 03:22:03;;;;;;;24.07;14.63;;;17.00;99.90;;;;;;5113579;28;20202;-79
2021/07/09 03:24:30;;;;;;;22.53;13.93;;;17.10;99.90;;;;;;5113365;28;20226;-79
2021/07/09 03:26:59;;;;;;;21.77;13.67;;;17.00;99.90;;;;;;5113161;28;20281;-80
2021/07/09 03:29:26;;;;;;;22.37;14.17;;;17.10;99.90;;;;;;5113065;28;20277;-79
2021/07/09 03:31:53;;;;;;;23.03;14.07;;;17.20;99.90;;;;;;5113225;28;20716;-80
2021/07/09 03:34:20;;;;;;;17.47;12.27;;;17.20;99.90;;;;;;5112848;28;20201;-80
2021/07/09 03:36:48;;;;;;;17.83;12.70;;;17.30;99.90;;;;;;5113155;28;20201;-79
2021/07/09 03:39:15;;;;;;;18.57;13.43;;;17.20;99.90;;;;;;5112750;28;20229;-80
2021/07/09 03:41:42;;;;;;;17.57;12.27;;;17.10;99.90;;;;;;5112979;28;20384;-80
2021/07/09 03:44:11;;;;;;;22.20;13.27;;;17.10;99.90;;;;;;5113009;28;20335;-80
2021/07/09 03:46:39;;;;;;;18.53;12.33;;;17.20;99.90;;;;;;5112890;28;20281;-80
2021/07/09 03:49:06;;;;;;;18.60;12.63;;;17.20;99.90;;;;;;5112700;28;20751;-79
2021/07/09 03:51:34;;;;;;;18.47;12.33;;;17.20;99.90;;;;;;5113481;28;20284;-79
2021/07/09 03:54:00;;;;;;;19.27;12.07;;;17.30;99.90;;;;;;5113696;28;20252;-79
2021/07/09 03:56:29;;;;;;;18.30;12.07;;;17.40;99.90;;;;;;5112533;28;20280;-80
2021/07/09 03:58:57;;;;;;;19.17;12.07;;;17.40;99.90;;;;;;5112530;28;20238;-80
2021/07/09 04:01:25;;;;;;;16.20;11.97;;;17.40;99.90;;;;;;5112703;28;20222;-79
2021/07/09 04:03:52;;;;;;;16.20;11.50;;;17.50;99.90;;;;;;5112666;28;20230;-80
2021/07/09 04:06:19;;;;;;;16.33;11.20;;;17.40;99.90;;;;;;5112679;28;20277;-80
2021/07/09 04:08:46;;;;;;;18.70;12.03;;;17.40;99.90;;;;;;5116370;28;20281;-80
2021/07/09 04:11:14;;;;;;;16.10;11.53;;;17.40;99.90;;;;;;5117053;28;20220;-81
2021/07/09 04:13:41;;;;;;;21.07;11.07;;;17.30;99.90;;;;;;5116805;28;20295;-80
2021/07/09 04:16:07;;;;;;;19.10;11.67;;;17.30;99.90;;;;;;5116647;28;20197;-80
2021/07/09 04:18:36;;;;;;;18.63;11.33;;;17.30;99.90;;;;;;5116299;28;20222;-80
2021/07/09 04:21:03;;;;;;;15.10;11.23;;;17.30;99.90;;;;;;5116613;28;20226;-80
2021/07/09 04:23:30;;;;;;;15.97;10.80;;;17.30;99.90;;;;;;5116431;28;20285;-80
2021/07/09 04:25:58;;;;;;;16.50;9.97;;;17.40;99.90;;;;;;5116343;28;20216;-80
2021/07/09 04:28:25;;;;;;;16.30;10.80;;;17.50;99.90;;;;;;5116462;28;20289;-80
2021/07/09 04:30:54;;;;;;;17.10;10.47;;;17.50;99.90;;;;;;5116129;28;20594;-80
2021/07/09 04:33:21;;;;;;;14.53;10.07;;;17.60;99.90;;;;;;5116570;28;20217;-81
2021/07/09 04:35:52;;;;;;;13.83;10.17;;;17.70;99.90;;;;;;5115900;28;20301;-80
2021/07/09 04:38:20;;;;;;;20.43;10.33;;;17.60;99.90;;;;;;5115985;28;20433;-80
2021/07/09 04:40:48;;;;;;;20.23;10.70;;;17.60;99.90;;;;;;5116467;28;20213;-80
2021/07/09 04:43:15;;;;;;;17.37;10.00;;;17.60;99.90;;;;;;5116214;28;20290;-80
2021/07/09 04:45:42;;;;;;;15.83;10.63;;;17.60;99.90;;;;;;5116053;28;20194;-80
2021/07/09 04:48:10;;;;;;;14.77;9.63;;;17.80;99.90;;;;;;5116345;28;20715;-80
2021/07/09 04:50:37;;;;;;;19.93;9.90;;;17.70;99.90;;;;;;5115890;28;20612;-79
2021/07/09 04:53:06;;;;;;;16.33;10.23;;;17.70;99.90;;;;;;5116089;28;20628;-79
2021/07/09 04:55:32;;;;;;;15.10;9.50;;;17.80;99.90;;;;;;5115716;28;20238;-80
2021/07/09 04:57:59;;;;;;;21.57;10.13;;;17.80;99.90;;;;;;5116027;28;20190;-80
2021/07/09 05:00:26;;;;;;;19.30;10.13;;;18.00;99.90;;;;;;5115576;28;20324;-80
2021/07/09 05:02:57;;;;;;;18.63;10.43;;;17.90;99.90;;;;;;5116161;28;20190;-79
2021/07/09 05:05:24;;;;;;;15.70;9.63;;;18.10;99.90;;;;;;5115809;28;20249;-79
2021/07/09 05:07:51;;;;;;;13.77;9.63;;;18.30;99.90;;;;;;5115908;28;20282;-80
2021/07/09 05:10:19;;;;;;;14.20;9.17;;;18.30;99.90;;;;;;5115373;28;20280;-80
2021/07/09 05:12:46;;;;;;;19.97;9.80;;;18.30;99.90;;;;;;5113409;28;20592;-80
2021/07/09 05:15:13;;;;;;;43.53;15.77;;;18.40;99.90;;;;;;5127151;27;20197;-80
2021/07/09 05:17:40;;;;;;;16.90;10.83;;;18.50;99.90;;;;;;5114930;27;20281;-80
2021/07/09 05:20:08;;;;;;;14.53;9.50;;;18.70;99.90;;;;;;5114319;28;20229;-79
2021/07/09 05:22:35;;;;;;;17.13;9.07;;;18.80;99.90;;;;;;5113569;28;20194;-80
2021/07/09 05:25:02;;;;;;;17.13;9.57;;;18.80;99.90;;;;;;5115307;28;20222;-79
2021/07/09 05:27:31;;;;;;;15.73;9.63;;;19.10;99.90;;;;;;5114825;28;20281;-80
2021/07/09 05:29:58;;;;;;;13.80;8.93;;;19.60;99.90;;;;;;5115041;28;20289;-80
2021/07/09 05:32:26;;;;;;;15.77;10.07;;;20.20;99.90;;;;;;5114687;28;20289;-80
2021/07/09 05:34:54;;;;;;;14.03;9.17;;;20.80;99.90;;;;;;5115136;28;20574;-80
2021/07/09 05:37:22;;;;;;;15.70;9.43;;;21.20;99.90;;;;;;5114291;28;20307;-80
2021/07/09 05:39:49;;;;;;;17.13;9.80;;;21.30;99.90;;;;;;5114625;27;20313;-79
2021/07/09 05:42:16;;;;;;;14.80;9.73;;;21.20;99.90;;;;;;5114151;28;20242;-80
2021/07/09 05:44:45;;;;;;;18.97;9.63;;;21.20;99.90;;;;;;5114652;28;20277;-80
2021/07/09 05:47:12;;;;;;;15.30;9.82;;;21.60;99.90;;;;;;5115412;28;20289;-79
2021/07/09 05:49:39;;;;;;;14.02;9.23;;;22.50;99.90;;;;;;5114256;28;20191;-80
2021/07/09 05:52:07;;;;;;;13.18;9.65;;;23.60;99.90;;;;;;5114229;28;20289;-80
2021/07/09 05:54:34;;;;;;;18.63;8.85;;;24.50;99.90;;;;;;5114120;28;20715;-81
2021/07/09 05:57:02;;;;;;;13.23;9.30;;;25.20;99.90;;;;;;5114473;28;20304;-80
2021/07/09 05:59:29;;;;;;;12.25;8.90;;;25.70;99.90;;;;;;5114433;28;20641;-81
2021/07/09 06:01:58;;;;;;;17.30;8.50;;;26.90;99.90;;;;;;5114827;28;20570;-81
2021/07/09 06:04:25;;;;;;;12.93;8.32;;;28.20;99.90;;;;;;5114419;28;20194;-82
2021/07/09 06:06:51;;;;;;;13.05;8.40;;;29.20;99.90;;;;;;5110555;28;20644;-81
2021/07/09 06:09:18;;;;;;;12.15;8.75;;;29.90;99.90;;;;;;5111775;28;20209;-82
2021/07/09 06:11:45;;;;;;;11.88;8.85;;;30.10;99.90;;;;;;5112351;28;20691;-81
2021/07/09 06:14:12;;;;;;;10.80;8.50;;;31.00;99.90;;;;;;5113738;28;20258;-80
2021/07/09 06:16:39;;;;;;;12.80;8.63;;;31.80;99.90;;;;;;5113581;28;20234;-81
2021/07/09 06:19:08;;;;;;;13.07;8.00;;;31.80;99.90;;;;;;5113617;28;20795;-81
2021/07/09 06:21:34;;;;;;;12.13;8.30;;;32.90;99.90;;;;;;5114006;28;20293;-82
2021/07/09 06:24:01;;;;;;;10.25;7.80;;;33.40;99.90;;;;;;5113562;28;20285;-83
2021/07/09 06:26:28;;;;;;;9.88;8.02;;;33.80;99.90;;;;;;5113585;28;20194;-82
2021/07/09 06:28:55;;;;;;;11.70;7.95;;;32.90;99.90;;;;;;5113679;28;20275;-84
2021/07/09 06:31:22;;;;;;;12.27;8.57;;;31.80;99.90;;;;;;5132980;27;20200;-83
2021/07/09 06:33:49;;;;;;;12.52;8.63;;;30.50;99.90;;;;;;5121852;27;20235;-81
2021/07/09 06:36:18;;;;;;;10.13;8.40;;;29.20;99.90;;;;;;5114180;28;20289;-81
2021/07/09 06:38:46;;;;;;;14.77;9.88;;;28.10;99.90;;;;;;5113720;28;20279;-81
2021/07/09 06:41:13;;;;;;;12.20;9.00;;;27.20;99.90;;;;;;5111940;27;20562;-82
2021/07/09 06:43:40;;;;;;;11.13;8.80;;;26.30;99.90;;;;;;5113228;28;20247;-84
2021/07/09 06:46:07;;;;;;;14.13;9.07;;;25.20;99.90;;;;;;5113573;28;20198;-82
2021/07/09 06:48:34;;;;;;;13.77;8.77;;;24.30;99.90;;;;;;5113508;28;20230;-79
2021/07/09 06:51:01;;;;;;;12.70;9.00;;;24.90;99.90;;;;;;5113765;28;20230;-82
2021/07/09 06:53:29;;;;;;;12.35;8.00;;;25.40;99.90;;;;;;5113168;28;20273;-83
2021/07/09 06:55:56;;;;;;;10.52;7.53;;;27.30;99.90;;;;;;5113161;28;20230;-83
2021/07/09 06:58:23;;;;;;;11.65;7.97;;;29.00;99.90;;;;;;5112817;28;20273;-82
2021/07/09 07:00:50;;;;;;;9.00;7.60;;;30.20;99.90;;;;;;5112546;28;20229;-80
2021/07/09 07:03:16;;;;;;;11.15;7.25;;;31.90;99.90;;;;;;5112884;28;20186;-85
2021/07/09 07:05:43;;;;;;;10.18;8.00;;;33.70;99.90;;;;;;5113434;28;20579;-81
2021/07/09 07:08:15;;;;;;;10.38;7.40;;;34.60;99.90;;;;;;5109635;28;20281;-78
2021/07/09 07:10:44;;;;;;;9.70;7.68;;;35.40;99.90;;;;;;5113626;28;20194;-78
2021/07/09 07:13:13;;;;;;;8.98;7.20;;;35.50;99.90;;;;;;5113137;28;20200;-81
2021/07/09 07:15:40;;;;;;;8.95;7.50;;;35.00;99.90;;;;;;5112519;28;20197;-79
2021/07/09 07:18:09;;;;;;;12.98;7.85;;;33.70;99.90;;;;;;5113399;28;20199;-80
2021/07/09 07:20:37;;;;;;;11.70;7.20;;;31.80;99.90;;;;;;5112737;28;20216;-81
2021/07/09 07:23:04;;;;;;;10.07;7.70;;;29.90;99.90;;;;;;5110861;28;20197;-80
2021/07/09 07:25:31;;;;;;;9.57;7.43;;;28.80;99.90;;;;;;5112861;28;20191;-78
2021/07/09 07:27:59;;;;;;;12.05;7.30;;;27.60;99.90;;;;;;5112529;28;20194;-81
2021/07/09 07:30:26;;;;;;;12.00;7.47;;;26.80;99.90;;;;;;5109811;28;20640;-79
2021/07/09 07:32:53;;;;;;;10.68;7.35;;;26.30;99.90;;;;;;5111794;28;20269;-82
2021/07/09 07:35:20;;;;;;;8.63;6.80;;;26.00;99.90;;;;;;5109992;28;20652;-82
2021/07/09 07:37:47;;;;;;;8.80;6.60;;;26.50;99.90;;;;;;5112619;28;20285;-82
2021/07/09 07:40:15;;;;;;;8.65;6.13;;;26.80;99.90;;;;;;5112946;28;20657;-83
2021/07/09 07:42:44;;;;;;;7.50;6.47;;;28.60;99.90;;;;;;5110770;28;20723;-80
2021/07/09 07:45:13;;;;;;;8.32;6.63;;;28.90;99.90;;;;;;5111773;28;20226;-80
2021/07/09 07:47:41;;;;;;;9.27;6.97;;;28.90;99.90;;;;;;5112061;28;20686;-80
2021/07/09 07:50:09;;;;;;;10.07;6.90;;;28.00;99.90;;;;;;5112311;28;20237;-80
2021/07/09 07:52:36;;;;;;;9.95;6.55;;;28.40;99.90;;;;;;5113841;28;20562;-80
2021/07/09 07:55:04;;;;;;;9.50;6.50;;;29.50;99.90;;;;;;5112594;28;20289;-79
2021/07/09 07:57:31;;;;;;;10.38;6.13;;;29.40;99.90;;;;;;5112320;28;20639;-80
2021/07/09 07:59:58;;;;;;;10.40;7.15;;;29.30;99.90;;;;;;5112386;28;20225;-79
2021/07/09 08:02:26;;;;;;;9.20;7.25;;;28.50;99.90;;;;;;5110811;28;20194;-81
2021/07/09 08:04:53;;;;;;;9.88;7.00;;;28.60;99.90;;;;;;5112133;28;20198;-79
2021/07/09 08:07:20;;;;;;;8.38;7.22;;;28.30;99.90;;;;;;5111819;28;20694;-80
2021/07/09 08:09:47;;;;;;;11.07;7.82;;;27.80;99.90;;;;;;5112369;28;20282;-80
2021/07/09 08:12:14;;;;;;;8.02;7.22;;;27.30;99.90;;;;;;5110180;28;20222;-80
2021/07/09 08:14:41;;;;;;;10.40;7.53;;;27.10;99.90;;;;;;5111719;28;20194;-80
2021/07/09 08:17:08;;;;;;;10.93;7.13;;;27.20;99.90;;;;;;5126063;28;20381;-79
2021/07/09 08:19:36;;;;;;;8.13;7.30;;;28.30;99.90;;;;;;5111692;28;20256;-78
2021/07/09 08:22:04;;;;;;;8.70;7.20;;;28.50;99.90;;;;;;5110781;28;20585;-79
2021/07/09 08:24:31;;;;;;;12.43;7.13;;;28.90;99.90;;;;;;5111321;28;20237;-79
2021/07/09 08:26:58;;;;;;;8.02;6.93;;;30.70;99.90;;;;;;5110836;28;20237;-80
2021/07/09 08:29:26;;;;;;;8.60;7.68;;;32.60;99.90;;;;;;5113864;28;20190;-80
2021/07/09 08:31:53;;;;;;;7.38;6.68;;;34.20;99.90;;;;;;5111657;28;20209;-79
2021/07/09 08:34:20;;;;;;;8.60;7.15;;;34.70;99.90;;;;;;5112446;28;20286;-80
2021/07/09 08:36:48;;;;;;;7.97;7.15;;;34.10;99.90;;;;;;5112176;28;20686;-80
2021/07/09 08:39:16;;;;;;;8.05;6.80;;;32.80;99.90;;;;;;5108953;28;20629;-81
2021/07/09 08:41:43;;;;;;;8.80;7.63;;;31.80;99.90;;;;;;5111348;28;20222;-80
2021/07/09 08:44:11;;;;;;;9.18;7.82;;;31.30;99.90;;;;;;5113511;28;20298;-81
2021/07/09 08:46:39;;;;;;;10.57;8.02;;;29.80;99.90;;;;;;5111697;28;20285;-80
2021/07/09 08:49:09;;;;;;;9.35;8.45;;;28.40;99.90;;;;;;5112264;28;20229;-80
2021/07/09 08:51:36;;;;;;;9.65;7.68;;;28.90;99.90;;;;;;5109611;28;20191;-81
2021/07/09 08:54:04;;;;;;;10.35;7.40;;;30.30;99.90;;;;;;5115101;28;20222;-80
2021/07/09 08:56:32;;;;;;;11.02;8.00;;;31.30;99.90;;;;;;5115497;28;20313;-80
2021/07/09 08:58:59;;;;;;;9.50;7.07;;;31.80;99.90;;;;;;5116241;28;20212;-81
2021/07/09 09:01:27;;;;;;;9.48;7.45;;;32.30;99.90;;;;;;5115064;28;20362;-81
2021/07/09 09:04:05;;;;;;;8.60;6.70;;;31.60;99.90;;;;;;5115778;28;20283;-79
2021/07/09 09:06:34;;;;;;;10.95;6.15;;;30.10;99.90;;;;;;5117181;28;20257;-79
2021/07/09 09:09:15;;;;;;;7.07;6.03;;;29.10;99.90;;;;;;5115136;28;20554;-82
2021/07/09 09:11:59;;;;;;;7.15;6.00;;;28.40;99.90;;;;;;5113212;28;20193;-82
2021/07/09 09:14:26;;;;;;;6.80;6.10;;;29.00;99.90;;;;;;5114130;28;20195;-80
2021/07/09 09:16:53;;;;;;;7.22;6.07;;;29.60;99.90;;;;;;5115412;28;20281;-79
2021/07/09 09:19:21;;;;;;;7.47;6.07;;;29.20;99.90;;;;;;5115234;28;20190;-79
2021/07/09 09:22:07;;;;;;;9.38;6.47;;;28.20;99.90;;;;;;5116370;27;20684;-79
2021/07/09 09:24:36;;;;;;;7.72;6.65;;;27.50;99.90;;;;;;5114099;28;20189;-81
2021/07/09 09:27:03;;;;;;;8.23;6.13;;;26.80;99.90;;;;;;5115731;28;20194;-78
2021/07/09 09:29:36;;;;;;;8.18;6.22;;;26.50;99.90;;;;;;5115688;28;20206;-79
2021/07/09 09:32:06;;;;;;;8.15;6.40;;;26.10;99.90;;;;;;5115171;28;20602;-79
2021/07/09 09:34:36;;;;;;;8.93;6.03;;;26.60;99.90;;;;;;5115919;28;20195;-79
2021/07/09 09:37:04;;;;;;;7.45;5.55;;;26.60;99.90;;;;;;5117268;27;20285;-80
2021/07/09 09:39:31;;;;;;;9.63;6.03;;;26.20;99.90;;;;;;5114666;28;20284;-80
2021/07/09 09:42:17;;;;;;;8.00;5.90;;;26.40;99.90;;;;;;5117817;27;20257;-78
2021/07/09 09:44:44;;;;;;;8.00;5.90;;;26.70;99.90;;;;;;5128974;27;20720;-79
2021/07/09 09:47:13;;;;;;;7.43;5.60;;;26.90;99.90;;;;;;5114966;28;20218;-79
2021/07/09 09:49:40;;;;;;;9.43;6.38;;;26.70;99.90;;;;;;5115285;28;20290;-80
2021/07/09 09:52:07;;;;;;;7.65;6.80;;;26.60;99.90;;;;;;5118260;27;20197;-79
2021/07/09 09:54:35;;;;;;;9.85;7.05;;;25.70;99.90;;;;;;5112590;28;20657;-78
2021/07/09 09:57:04;;;;;;;11.75;6.88;;;25.50;99.90;;;;;;5113396;28;20198;-78
2021/07/09 09:59:33;;;;;;;11.23;7.68;;;25.60;99.90;;;;;;5116375;28;20205;-80
2021/07/09 10:02:02;;;;;;;9.25;7.50;;;25.90;99.90;;;;;;5115643;28;20254;-80
2021/07/09 10:04:29;;;;;;;10.57;7.95;;;25.90;99.90;;;;;;5114490;28;20202;-80
2021/07/09 10:07:00;;;;;;;10.25;8.48;;;25.80;99.90;;;;;;5114941;28;20297;-80
2021/07/09 10:09:29;;;;;;;13.35;9.65;;;25.50;99.90;;;;;;5112956;28;20221;-80
2021/07/09 10:11:56;;;;;;;12.07;8.77;;;25.20;99.90;;;;;;5114481;28;20195;-79
2021/07/09 10:14:26;;;;;;;11.90;8.90;;;24.70;99.90;;;;;;5114739;28;20648;-79
2021/07/09 10:16:59;;;;;;;14.13;10.48;;;24.70;99.90;;;;;;5114560;28;20229;-79
2021/07/09 10:19:29;;;;;;;12.75;9.30;;;24.90;99.90;;;;;;5114329;28;20221;-80
2021/07/09 10:21:55;;;;;;;9.45;8.50;;;25.20;99.90;;;;;;5114859;28;20209;-78
2021/07/09 10:24:22;;;;;;;11.32;8.10;;;25.40;99.90;;;;;;5115866;27;20652;-78
2021/07/09 10:26:53;;;;;;;9.73;7.78;;;25.50;99.90;;;;;;5113056;28;20281;-79
2021/07/09 10:29:21;;;;;;;10.63;8.15;;;25.50;99.90;;;;;;5112239;27;20698;-81
2021/07/09 10:31:49;;;;;;;10.48;8.10;;;25.20;99.90;;;;;;5110757;27;20203;-79
2021/07/09 10:34:38;;;;;;;9.25;6.60;;;25.20;99.90;;;;;;5115550;27;20190;-78
2021/07/09 10:37:09;;;;;;;7.95;6.88;;;25.40;99.90;;;;;;5107913;28;20194;-79
2021/07/09 10:39:48;;;;;;;8.18;6.88;;;25.60;99.90;;;;;;5114244;27;20202;-80
2021/07/09 10:42:26;;;;;;;7.68;6.82;;;26.40;99.90;;;;;;5112021;28;20214;-81
2021/07/09 10:45:01;;;;;;;8.90;6.72;;;27.20;99.90;;;;;;5111686;28;20645;-79
2021/07/09 10:47:53;;;;;;;10.43;7.88;;;27.60;99.90;;;;;;5112173;28;20265;-80
2021/07/09 10:50:34;;;;;;;8.52;7.45;;;27.10;99.90;;;;;;5112959;28;20190;-79
2021/07/09 10:53:03;;;;;;;9.50;7.30;;;27.10;99.90;;;;;;5113022;28;20639;-79
2021/07/09 10:55:43;;;;;;;8.80;7.30;;;27.30;99.90;;;;;;5112477;28;20198;-78
2021/07/09 10:58:19;;;;;;;9.57;7.88;;;27.30;99.90;;;;;;5112122;28;20693;-80
2021/07/09 11:00:48;;;;;;;10.90;8.90;;;27.20;99.90;;;;;;5113120;27;20333;-80
2021/07/09 11:03:24;;;;;;;13.05;9.98;;;26.90;99.90;;;;;;5113449;28;20281;-80
2021/07/09 11:06:02;;;;;;;14.55;11.57;;;27.00;99.90;;;;;;5111953;28;20209;-82
2021/07/09 11:09:04;;;;;;;17.70;11.75;;;26.70;99.90;;;;;;5111956;28;20236;-79
2021/07/09 11:11:42;;;;;;;17.48;13.65;;;26.50;99.90;;;;;;5112533;28;20232;-80
2021/07/09 11:14:10;;;;;;;14.20;12.13;;;26.00;99.90;;;;;;5111860;28;20254;-80
2021/07/09 11:16:38;;;;;;;14.80;12.77;;;25.70;99.90;;;;;;5112622;27;20277;-82
2021/07/09 11:19:10;;;;;;;17.80;12.25;;;25.40;99.90;;;;;;5112956;28;20221;-78
2021/07/09 11:21:57;;;;;;;19.40;12.05;;;25.40;99.90;;;;;;5110521;28;20206;-80
2021/07/09 11:24:30;;;;;;;11.88;10.57;;;25.40;99.90;;;;;;5111249;28;20194;-81
2021/07/09 11:26:59;;;;;;;15.40;10.95;;;25.20;99.90;;;;;;5110602;28;20190;-80
2021/07/09 11:29:32;;;;;;;11.88;10.63;;;25.30;99.90;;;;;;5112419;28;20253;-79
2021/07/09 11:32:01;;;;;;;13.02;10.43;;;25.00;99.90;;;;;;5112773;28;20237;-80
2021/07/09 11:34:29;;;;;;;13.13;10.63;;;24.70;99.90;;;;;;5110298;28;20351;-79
2021/07/09 11:36:58;;;;;;;14.38;9.90;;;24.90;99.90;;;;;;5111122;28;20194;-80
2021/07/09 11:39:28;;;;;;;11.45;9.77;;;24.80;99.90;;;;;;5104917;28;20222;-79
2021/07/09 11:41:57;;;;;;;12.40;9.70;;;24.70;99.90;;;;;;5112364;28;20308;-78
2021/07/09 11:44:27;;;;;;;15.88;10.70;;;25.10;99.90;;;;;;5106804;28;20244;-78
2021/07/09 11:46:55;;;;;;;14.88;10.48;;;25.30;99.90;;;;;;5112404;28;20276;-78
2021/07/09 11:49:24;;;;;;;13.25;10.80;;;25.30;99.90;;;;;;5108771;28;20225;-78
2021/07/09 11:51:53;;;;;;;11.38;9.85;;;25.10;99.90;;;;;;5110592;28;20198;-78
2021/07/09 11:54:26;;;;;;;11.50;9.43;;;24.90;99.90;;;;;;5110140;28;20202;-78
2021/07/09 11:56:55;;;;;;;17.83;9.98;;;24.60;99.90;;;;;;5110674;28;20684;-78
2021/07/09 11:59:22;;;;;;;14.23;9.48;;;24.40;99.90;;;;;;5111851;28;20243;-78
2021/07/09 12:02:11;;;;;;;12.50;8.95;;;24.30;99.90;;;;;;5111264;28;20248;-80
2021/07/09 12:04:40;;;;;;;11.48;9.45;;;24.10;99.90;;;;;;5111750;28;20221;-82
2021/07/09 12:07:37;;;;;;;11.70;9.50;;;24.00;99.90;;;;;;5111898;28;20591;-80
2021/07/09 12:10:09;;;;;;;13.25;10.60;;;24.10;99.90;;;;;;5111440;28;20293;-78
2021/07/09 12:12:39;;;;;;;13.77;10.82;;;24.10;99.90;;;;;;5113392;28;20208;-80
2021/07/09 12:15:09;;;;;;;14.30;11.10;;;23.90;99.90;;;;;;5108219;28;20759;-81
2021/07/09 12:17:38;;;;;;;14.35;10.52;;;24.10;99.90;;;;;;5111661;28;20191;-81
2021/07/09 12:20:11;;;;;;;14.30;9.48;;;24.40;99.90;;;;;;5110476;28;20190;-79
2021/07/09 12:22:39;;;;;;;13.50;8.95;;;24.70;99.90;;;;;;5116117;28;20555;-80
2021/07/09 12:25:12;;;;;;;12.70;8.32;;;24.90;99.90;;;;;;5111621;28;20273;-81
2021/07/09 12:27:39;;;;;;;13.57;8.98;;;24.70;99.90;;;;;;5103363;27;20271;-80
2021/07/09 12:30:13;;;;;;;11.48;8.70;;;24.90;99.90;;;;;;5114449;28;20273;-80
2021/07/09 12:32:45;;;;;;;10.85;8.60;;;25.00;99.90;;;;;;5113236;28;20601;-80
2021/07/09 12:35:14;;;;;;;14.07;9.60;;;25.20;99.90;;;;;;5114221;28;20320;-80
2021/07/09 12:37:41;;;;;;;13.48;8.55;;;25.50;99.90;;;;;;5115986;28;20671;-80
2021/07/09 12:40:11;;;;;;;14.88;8.80;;;25.80;99.90;;;;;;5116248;28;20289;-81
2021/07/09 12:42:39;;;;;;;10.30;7.60;;;26.50;99.90;;;;;;5115985;28;20664;-81
2021/07/09 12:45:08;;;;;;;11.15;6.90;;;27.40;99.90;;;;;;5115853;28;20220;-81